Latest Weather Observations for Port Macquarie Airport

IDN60801

Issued at 11:35 am EST Sunday 21 September 2014 (issued every 30 minutes, with the page automatically refreshed every 10 minutes)

About weather observations | Map of weather stations | Latest weather observations for NSW | Other Formats
Station Details ID: 060139 Name: PORT MACQUARIE AIRPORT AWS Lat: -31.43 Lon: 152.87 Height: 4.2 m
Data from the previous 72 hours. | See also: Recent months at Port Macquarie Airport
Date/Time
EST
Temp
°C
App
Temp
°C
Dew
Point
Rel
Hum
%
Delta-T
°C
Wind Press
QNH
hPa
Press
MSL
hPa
Rain
since 9 am
mm
Dir
 
Spd
km/h
Gust
km/h
Spd
kts
Gust
kts
21/11:30am 19.6 15.9 10.3 55 5.0 S 20 32 11 17 1028.7 1028.7 0.0
21/11:00am 20.1 16.1 10.5 54 5.2 S 22 32 12 17 1028.8 1028.8 0.0
21/10:30am 19.1 15.4 9.3 53 5.2 S 19 28 10 15 1029.0 1029.0 0.0
21/10:00am 18.9 14.3 9.7 55 4.8 SSW 24 30 13 16 1028.8 1028.8 0.0
21/09:30am 18.7 15.2 10.8 60 4.3 SSW 20 28 11 15 1028.7 1028.7 0.0
21/09:00am 17.9 15.7 10.8 63 3.8 S 13 20 7 11 1028.8 1028.8 0.0
21/08:30am 17.4 14.4 10.5 64 3.7 SW 17 24 9 13 1028.8 1028.8 0.0
21/08:00am 16.0 13.7 10.3 69 3.0 WSW 13 17 7 9 1028.6 1028.6 0.0
21/07:30am 14.4 12.6 9.4 72 2.6 WSW 9 13 5 7 1028.3 1028.3 0.0
21/07:00am 12.7 10.8 9.0 78 1.8 W 9 11 5 6 1028.1 1028.1 0.0
21/06:30am 11.0 9.6 8.8 86 1.1 WSW 6 7 3 4 1027.8 1027.8 0.0
21/06:00am 10.5 8.8 8.3 86 1.1 WNW 7 11 4 6 1027.2 1027.2 0.0
21/05:30am 11.0 8.5 8.2 83 1.4 W 11 15 6 8 1026.9 1026.9 0.0
21/05:00am 11.6 9.2 8.5 81 1.5 W 11 15 6 8 1026.7 1026.7 0.0
21/04:30am 11.7 8.9 8.7 82 1.5 W 13 17 7 9 1026.4 1026.4 0.0
21/04:00am 12.0 8.5 8.7 80 1.6 W 17 22 9 12 1026.3 1026.3 0.0
21/03:30am 12.1 8.6 8.9 81 1.6 W 17 24 9 13 1026.0 1026.0 0.0
21/03:00am 11.6 8.5 8.8 83 1.4 W 15 20 8 11 1026.0 1026.0 0.0
21/02:30am 11.4 8.3 8.8 84 1.3 WNW 15 19 8 10 1025.9 1025.9 0.0
21/02:00am 11.3 8.2 8.9 85 1.2 WNW 15 22 8 12 1026.5 1026.5 0.0
21/01:30am 9.4 7.8 7.8 90 0.8 W 6 7 3 4 1026.6 1026.6 0.0
21/01:00am 9.4 9.0 8.2 92 0.6 CALM 0 0 0 0 1026.8 1026.8 0.0
21/12:30am 9.6 9.2 8.2 91 0.7 CALM 0 0 0 0 1026.7 1026.7 0.0
21/12:00am 9.8 8.0 7.9 88 0.9 W 7 9 4 5 1026.9 1026.9 0.0
 
Date/Time
EST
Temp
°C
App
Temp
°C
Dew
Point
Rel
Hum
%
Delta-T
°C
Wind Press
QNH
hPa
Press
MSL
hPa
Rain
since 9 am
mm
Dir
 
Spd
km/h
Gust
km/h
Spd
kts
Gust
kts
20/11:30pm 10.8 9.4 8.9 88 0.9 W 6 7 3 4 1026.8 1026.8 0.0
20/11:00pm 10.5 8.4 8.1 85 1.2 SW 9 11 5 6 1026.4 1026.4 0.0
20/10:30pm 11.9 9.9 8.7 81 1.6 WSW 9 11 5 6 1026.5 1026.5 0.0
20/10:00pm 13.0 10.5 9.6 80 1.7 WNW 13 15 7 8 1026.6 1026.6 0.0
20/09:30pm 13.5 11.8 9.9 79 1.9 W 9 15 5 8 1026.3 1026.3 0.0
20/09:00pm 13.6 12.3 9.8 78 1.9 WSW 7 11 4 6 1026.4 1026.4 0.0
20/08:30pm 14.5 12.5 10.1 75 2.3 W 11 15 6 8 1026.4 1026.4 0.0
20/08:00pm 14.5 12.5 10.1 75 2.3 WNW 11 15 6 8 1025.9 1025.9 0.0
20/07:30pm 15.1 13.6 10.5 74 2.4 W 9 11 5 6 1025.5 1025.5 0.0
20/07:00pm 15.5 14.0 10.5 72 2.6 WSW 9 11 5 6 1025.1 1025.1 0.0
20/06:30pm 15.8 14.8 10.3 70 2.9 SW 6 15 3 8 1024.6 1024.6 0.0
20/06:00pm 16.2 13.4 10.1 67 3.2 S 15 20 8 11 1024.0 1024.0 0.0
20/05:30pm 16.8 14.0 11.3 70 3.0 S 17 22 9 12 1023.6 1023.6 0.0
20/05:00pm 17.3 13.9 11.1 67 3.3 S 20 30 11 16 1023.1 1023.1 0.0
20/04:30pm 18.1 14.1 10.5 61 4.1 S 22 32 12 17 1022.8 1022.8 0.0
20/04:00pm 18.4 13.7 9.2 55 4.8 S 24 33 13 18 1022.4 1022.4 0.0
20/03:30pm 18.6 13.7 8.3 51 5.3 SSE 24 37 13 20 1022.0 1022.0 0.0
20/03:00pm 19.3 13.9 6.4 43 6.4 SSE 24 33 13 18 1021.8 1021.8 0.0
20/02:30pm 19.4 14.1 6.8 44 6.3 SSE 24 32 13 17 1021.7 1021.7 0.0
20/02:00pm 19.4 13.4 5.1 39 6.9 SSE 26 35 14 19 1021.7 1021.7 0.0
20/01:30pm 20.3 15.1 7.3 43 6.6 SSE 24 30 13 16 1021.9 1021.9 0.0
20/01:00pm 20.2 15.4 5.8 39 7.1 SE 20 30 11 16 1021.9 1021.9 0.0
20/12:30pm 21.1 16.8 7.0 40 7.2 SE 19 26 10 14 1022.0 1022.0 0.0
20/12:00pm 20.6 16.5 6.2 39 7.2 SE 17 28 9 15 1022.1 1022.1 0.0
20/11:30am 20.4 16.7 4.4 35 7.7 S 13 22 7 12 1022.4 1022.4 0.0
20/11:00am 19.9 16.9 4.0 35 7.6 WSW 9 15 5 8 1022.9 1022.9 0.0
20/10:30am 19.1 16.2 4.5 38 7.0 WSW 9 15 5 8 1023.1 1023.1 0.0
20/10:00am 18.9 16.9 6.4 44 6.2 N 6 11 3 6 1023.2 1023.2 0.0
20/09:30am 18.3 15.3 7.7 50 5.4 NW 13 17 7 9 1023.4 1023.4 0.0
20/09:00am 16.6 14.0 7.8 56 4.4 WNW 11 15 6 8 1023.5 1023.5 0.0
20/08:30am 15.6 13.5 8.4 62 3.6 WNW 9 11 5 6 1023.6 1023.6 0.0
20/08:00am 13.8 10.9 8.2 69 2.8 W 13 19 7 10 1023.4 1023.4 0.0
20/07:30am 11.7 8.3 7.6 76 2.0 W 15 20 8 11 1023.2 1023.2 0.0
20/07:00am 10.5 7.4 7.4 81 1.5 WNW 13 20 7 11 1022.9 1022.9 0.0
20/06:30am 9.0 6.2 6.8 86 1.0 WNW 11 17 6 9 1022.6 1022.6 0.0
20/06:00am 7.4 5.7 5.9 90 0.7 WNW 4 11 2 6 1022.2 1022.2 0.0
20/05:30am 7.5 5.5 6.1 91 0.6 W 6 9 3 5 1021.8 1021.8 0.0
20/05:00am 6.8 5.8 5.4 91 0.6 CALM 0 6 0 3 1021.5 1021.5 0.0
20/04:30am 7.5 6.7 6.4 93 0.5 CALM 0 6 0 3 1020.9 1020.9 0.0
20/04:00am 6.1 4.3 5.2 94 0.4 WNW 4 7 2 4 1020.7 1020.7 0.0
20/03:30am 6.0 4.6 5.3 95 0.3 WSW 2 9 1 5 1020.4 1020.4 0.0
20/03:00am 5.1 3.8 3.9 92 0.5 CALM 0 0 0 0 1020.4 1020.4 0.0
20/02:30am 5.7 4.5 4.7 93 0.4 CALM 0 0 0 0 1020.5 1020.5 0.0
20/02:00am 5.7 4.4 4.2 90 0.6 CALM 0 0 0 0 1020.6 1020.6 0.0
20/01:30am 7.1 6.2 5.9 92 0.5 CALM 0 0 0 0 1020.8 1020.8 0.0
20/01:00am 7.4 6.4 5.5 88 0.8 CALM 0 0 0 0 1021.1 1021.1 0.0
20/12:30am 8.6 7.4 6.6 87 0.9 W 2 6 1 3 1021.2 1021.2 0.0
20/12:00am 9.3 7.9 7.3 87 0.9 WNW 4 7 2 4 1021.3 1021.3 0.0
 
Date/Time
EST
Temp
°C
App
Temp
°C
Dew
Point
Rel
Hum
%
Delta-T
°C
Wind Press
QNH
hPa
Press
MSL
hPa
Rain
since 9 am
mm
Dir
 
Spd
km/h
Gust
km/h
Spd
kts
Gust
kts
19/11:30pm 9.6 8.0 7.9 89 0.8 NNW 6 9 3 5 1021.5 1021.5 0.0
19/11:00pm 8.8 6.8 7.3 90 0.7 SW 7 9 4 5 1021.3 1021.3 0.0
19/10:30pm 8.4 6.5 6.9 90 0.7 SSW 6 7 3 4 1021.7 1021.7 0.0
19/10:00pm 8.2 6.3 6.7 90 0.7 SSW 6 6 3 3 1021.9 1021.9 0.0
19/09:30pm 8.0 6.7 5.8 86 1.0 SSW 2 6 1 3 1021.9 1021.9 0.0
19/09:00pm 9.1 8.3 6.5 84 1.2 CALM 0 0 0 0 1021.9 1021.9 0.0
19/08:30pm 10.2 9.5 7.1 81 1.5 CALM 0 0 0 0 1021.7 1021.7 0.0
19/08:00pm 11.2 10.6 7.5 78 1.8 CALM 0 0 0 0 1021.4 1021.4 0.0
19/07:30pm 11.8 10.7 7.1 73 2.3 N 2 6 1 3 1021.2 1021.2 0.0
19/07:00pm 12.5 11.9 7.2 70 2.5 CALM 0 0 0 0 1020.8 1020.8 0.0
19/06:30pm 13.2 11.8 7.2 67 2.9 S 4 7 2 4 1020.3 1020.3 0.0
19/06:00pm 14.7 12.7 6.3 57 4.0 S 6 9 3 5 1020.0 1020.0 0.0
19/05:30pm 15.7 12.7 5.9 52 4.7 S 11 15 6 8 1019.5 1019.5 0.0
19/05:00pm 16.2 12.4 5.8 50 5.0 SSE 15 20 8 11 1019.1 1019.1 0.0
19/04:30pm 17.0 13.0 6.5 50 5.2 SSE 17 24 9 13 1019.1 1019.1 0.0
19/04:00pm 17.4 13.5 7.2 51 5.1 SE 17 22 9 12 1018.9 1018.9 0.0
19/03:30pm 18.0 14.2 7.7 51 5.2 SE 17 22 9 12 1018.7 1018.7 0.0
19/03:00pm 17.7 13.4 6.9 49 5.4 SE 19 26 10 14 1018.5 1018.5 0.0
19/02:30pm 18.2 14.3 7.3 49 5.5 SSE 17 24 9 13 1018.3 1018.3 0.0
19/02:00pm 18.1 14.2 7.2 49 5.5 SSE 17 26 9 14 1018.6 1018.6 0.0
19/01:30pm 18.0 13.7 7.7 51 5.2 SE 20 24 11 13 1018.8 1018.8 0.0
19/01:00pm 18.3 14.5 7.7 50 5.4 SSE 17 24 9 13 1019.1 1019.1 0.0
19/12:30pm 17.5 13.8 7.8 53 4.9 SSE 17 22 9 12 1019.9 1019.9 0.0
19/12:00pm 18.1 15.1 7.8 51 5.2 SE 13 19 7 10 1020.2 1020.2 0.0
19/11:30am 18.5 16.8 7.6 49 5.5 N 6 15 3 8 1020.7 1020.7 0.0
19/11:00am 18.4 16.9 4.9 41 6.5 NNW 2 9 1 5 1021.2 1021.2 0.0
19/10:30am 17.7 15.5 6.3 47 5.6 SSW 7 9 4 5 1021.6 1021.6 0.0
19/10:00am 17.7 15.7 7.2 50 5.2 W 7 15 4 8 1021.9 1021.9 0.0
19/09:30am 16.4 14.2 7.9 57 4.3 W 9 13 5 7 1022.2 1022.2 0.0
19/09:00am 15.5 13.3 7.8 60 3.8 W 9 15 5 8 1022.2 1022.2 0.0
19/08:30am 14.0 11.3 7.3 64 3.3 W 11 15 6 8 1022.2 1022.2 0.0
19/08:00am 13.7 11.2 8.1 69 2.8 W 11 15 6 8 1022.2 1022.2 0.0
19/07:30am 12.3 9.7 7.6 73 2.3 WNW 11 17 6 9 1022.1 1022.1 0.0
19/07:00am 10.8 7.5 6.6 75 2.0 W 13 17 7 9 1021.8 1021.8 0.0
19/06:30am 9.7 6.4 6.4 80 1.5 W 13 19 7 10 1021.6 1021.6 0.0
19/06:00am 8.8 6.6 6.1 83 1.2 W 7 11 4 6 1021.3 1021.3 0.0
19/05:30am 8.6 6.3 5.9 83 1.2 W 7 15 4 8 1021.0 1021.0 0.0
19/05:00am 8.9 6.3 6.2 83 1.2 W 9 15 5 8 1020.7 1020.7 0.0
19/04:30am 8.8 6.6 6.2 84 1.2 W 7 13 4 7 1020.5 1020.5 0.0
19/04:00am 9.0 6.8 6.4 84 1.2 W 7 11 4 6 1020.5 1020.5 0.0
19/03:30am 9.5 6.3 6.8 83 1.3 W 13 20 7 11 1020.3 1020.3 0.0
19/03:00am 9.4 6.9 6.7 83 1.3 W 9 11 5 6 1020.3 1020.3 0.0
19/02:30am 9.4 7.0 6.8 84 1.2 W 9 17 5 9 1020.3 1020.3 0.0
19/02:00am 8.4 6.3 6.7 89 0.8 WNW 7 13 4 7 1020.5 1020.5 0.0
19/01:30am 8.5 6.6 7.6 94 0.4 W 7 13 4 7 1020.7 1020.7 0.0
19/01:00am 6.9 5.2 5.8 93 0.5 WSW 4 7 2 4 1020.7 1020.7 0.0
19/12:30am 6.1 5.0 4.9 92 0.5 CALM 0 0 0 0 1020.8 1020.8 0.0
19/12:00am 6.8 5.4 5.7 93 0.5 WNW 2 6 1 3 1021.1 1021.1 0.0
 
Date/Time
EST
Temp
°C
App
Temp
°C
Dew
Point
Rel
Hum
%
Delta-T
°C
Wind Press
QNH
hPa
Press
MSL
hPa
Rain
since 9 am
mm
Dir
 
Spd
km/h
Gust
km/h
Spd
kts
Gust
kts
18/11:30pm 7.3 6.4 6.2 93 0.5 CALM 0 0 0 0 1021.1 1021.1 0.0
18/11:00pm 6.9 5.9 5.4 90 0.7 CALM 0 0 0 0 1021.2 1021.2 0.0
18/10:30pm 7.6 6.7 6.1 90 0.7 CALM 0 0 0 0 1021.1 1021.1 0.0
18/10:00pm 7.8 6.9 6.1 89 0.8 CALM 0 0 0 0 1021.2 1021.2 0.0
18/09:30pm 8.3 7.6 6.8 90 0.7 CALM 0 0 0 0 1021.0 1021.0 0.0
18/09:00pm 8.7 8.0 6.8 88 0.9 CALM 0 0 0 0 1020.8 1020.8 0.0
18/08:30pm 9.6 9.0 7.4 86 1.0 CALM 0 0 0 0 1020.5 1020.5 0.0
18/08:00pm 9.6 8.9 6.9 83 1.3 CALM 0 6 0 3 1020.3 1020.3 0.0
18/07:30pm 10.5 9.9 7.4 81 1.5 CALM 0 0 0 0 1019.9 1019.9 0.0
18/07:00pm 11.0 8.7 7.3 78 1.8 SW 9 9 5 5 1019.3 1019.3 0.0
18/06:30pm 12.5 11.5 7.2 70 2.6 SW 2 7 1 4 1019.0 1019.0 0.0
18/06:00pm 14.7 12.7 7.3 61 3.6 S 7 11 4 6 1018.5 1018.5 0.0
18/05:30pm 16.1 13.4 7.3 56 4.4 SSE 11 22 6 12 1018.2 1018.2 0.0
18/05:00pm 17.0 12.7 7.1 52 4.9 S 19 24 10 13 1017.6 1017.6 0.0
18/04:30pm 17.9 13.9 6.7 48 5.6 SSE 17 24 9 13 1017.1 1017.1 0.0
18/04:00pm 18.2 13.7 7.0 48 5.6 SE 20 30 11 16 1016.8 1016.8 0.0
18/03:30pm 19.0 14.5 7.1 46 6.0 SSE 20 30 11 16 1016.4 1016.4 0.0
18/03:00pm 19.5 14.5 6.6 43 6.5 SE 22 32 12 17 1016.1 1016.1 0.0
18/02:30pm 19.4 14.0 4.3 37 7.2 SE 22 30 12 16 1015.7 1015.7 0.0
18/02:00pm 20.0 15.4 5.6 39 7.1 SE 19 33 10 18 1015.6 1015.6 0.0
18/01:30pm 20.3 15.5 4.4 35 7.7 SE 19 26 10 14 1015.7 1015.7 0.0
18/01:00pm 20.7 16.2 4.3 34 7.9 ESE 17 28 9 15 1015.9 1015.9 0.0
18/12:30pm 21.2 16.2 4.7 34 8.1 E 20 28 11 15 1016.1 1016.1 0.0
18/12:00pm 21.8 16.2 0.9 25 9.5 SW 20 32 11 17 1016.6 1016.6 0.0

Other Formats:

Comma delimited format used in spreadsheet applications
http://www.bom.gov.au/fwo/IDN60801/IDN60801.94786.axf

JavaScript Object Notation format (JSON) in row-major order
http://www.bom.gov.au/fwo/IDN60801/IDN60801.94786.json